createdAt,value
2018-09-19T00:01:56.812Z,53.62
2018-09-19T00:04:24.304Z,53.57
2018-09-19T00:06:51.995Z,53.86
2018-09-19T00:09:19.630Z,53.49
2018-09-19T00:11:47.104Z,53.94
2018-09-19T00:14:14.624Z,53.99
2018-09-19T00:16:42.151Z,53.58
2018-09-19T00:19:09.673Z,53.95
2018-09-19T00:21:37.214Z,53.98
2018-09-19T00:24:04.748Z,53.97
2018-09-19T00:26:32.276Z,53.64
2018-09-19T00:28:59.774Z,53.53
2018-09-19T00:31:27.344Z,53.99
2018-09-19T00:33:55.207Z,53.70
2018-09-19T00:36:23.123Z,54.03
2018-09-19T00:38:50.721Z,54.04
2018-09-19T00:41:18.286Z,53.63
2018-09-19T00:43:46.288Z,53.99
2018-09-19T00:46:13.878Z,53.52
2018-09-19T00:48:47.734Z,53.52
2018-09-19T00:51:15.240Z,54.04
2018-09-19T00:53:42.751Z,53.96
2018-09-19T00:56:10.271Z,53.79
2018-09-19T00:58:37.881Z,54.01
2018-09-19T01:01:05.439Z,54.00
2018-09-19T01:03:32.976Z,53.65
2018-09-19T01:06:00.480Z,53.68
2018-09-19T01:08:27.991Z,54.10
2018-09-19T01:10:55.494Z,53.61
2018-09-19T01:13:22.996Z,53.63
2018-09-19T01:15:50.490Z,53.64
2018-09-19T01:18:18.054Z,53.71
2018-09-19T01:20:45.658Z,53.67
2018-09-19T01:23:15.437Z,54.08
2018-09-19T01:25:42.984Z,54.01
2018-09-19T01:28:10.526Z,54.03
2018-09-19T01:30:38.019Z,53.66
2018-09-19T01:33:05.498Z,53.98
2018-09-19T01:35:33.093Z,53.98
2018-09-19T01:38:00.700Z,53.91
2018-09-19T01:40:28.218Z,53.61
2018-09-19T01:42:55.811Z,54.01
2018-09-19T01:45:23.345Z,54.04
2018-09-19T01:47:50.912Z,53.95
2018-09-19T01:50:18.406Z,53.92
2018-09-19T01:52:45.901Z,53.92
2018-09-19T01:55:13.432Z,53.69
2018-09-19T01:57:41.078Z,53.44
2018-09-19T02:00:08.598Z,53.51
2018-09-19T02:02:36.084Z,53.89
2018-09-19T02:05:03.685Z,53.67
2018-09-19T02:07:31.204Z,53.76
2018-09-19T02:09:58.734Z,53.82
2018-09-19T02:12:27.151Z,53.45
2018-09-19T02:14:54.648Z,53.86
2018-09-19T02:17:22.169Z,53.76
2018-09-19T02:19:49.683Z,53.89
2018-09-19T02:22:17.251Z,53.47
2018-09-19T02:24:44.920Z,53.89
2018-09-19T02:27:12.389Z,53.37
2018-09-19T02:29:39.893Z,53.47
2018-09-19T02:32:07.390Z,53.77
2018-09-19T02:34:35.011Z,53.75
2018-09-19T02:37:02.530Z,53.50
2018-09-19T02:39:30.034Z,53.42
2018-09-19T02:41:57.571Z,53.37
2018-09-19T02:44:25.023Z,53.39
2018-09-19T02:46:52.619Z,53.38
2018-09-19T02:49:20.140Z,53.49
2018-09-19T02:51:47.760Z,53.78
2018-09-19T02:54:15.285Z,53.71
2018-09-19T02:56:42.869Z,53.46
2018-09-19T02:59:10.404Z,53.90
2018-09-19T03:01:37.971Z,53.87
2018-09-19T03:04:05.839Z,53.90
2018-09-19T03:06:33.374Z,53.69
2018-09-19T03:09:00.969Z,53.68
2018-09-19T03:11:28.505Z,53.55
2018-09-19T03:13:56.029Z,53.54
2018-09-19T03:16:23.547Z,53.53
2018-09-19T03:18:51.139Z,53.59
2018-09-19T03:21:18.665Z,53.96
2018-09-19T03:23:46.208Z,53.54
2018-09-19T03:26:13.769Z,53.55
2018-09-19T03:28:41.361Z,53.62
2018-09-19T03:31:08.898Z,53.90
2018-09-19T03:33:36.429Z,53.67
2018-09-19T03:36:03.975Z,53.64
2018-09-19T03:38:31.526Z,53.76
2018-09-19T03:40:59.053Z,54.25
2018-09-19T03:43:26.585Z,53.59
2018-09-19T03:45:54.206Z,54.15
2018-09-19T03:48:21.715Z,53.74
2018-09-19T03:50:49.220Z,54.28
2018-09-19T03:53:16.786Z,53.79
2018-09-19T03:55:44.326Z,54.23
2018-09-19T03:58:11.870Z,54.26
2018-09-19T04:00:39.341Z,54.09
2018-09-19T04:03:06.862Z,54.23
2018-09-19T04:05:34.473Z,53.88
2018-09-19T04:08:02.035Z,53.89
2018-09-19T04:10:29.489Z,53.88
2018-09-19T04:12:56.990Z,53.88
2018-09-19T04:15:24.613Z,54.21
2018-09-19T04:17:52.193Z,54.28
2018-09-19T04:20:19.718Z,54.29
2018-09-19T04:22:47.271Z,53.89
2018-09-19T04:25:14.877Z,53.81
2018-09-19T04:27:42.435Z,53.84
2018-09-19T04:30:09.936Z,54.08
2018-09-19T04:32:37.764Z,54.14
2018-09-19T04:35:05.303Z,54.20
2018-09-19T04:37:32.795Z,53.79
2018-09-19T04:40:00.480Z,54.22
2018-09-19T04:42:27.962Z,53.81
2018-09-19T04:44:55.648Z,54.20
2018-09-19T04:47:23.123Z,54.34
2018-09-19T04:49:50.713Z,54.14
2018-09-19T04:52:18.271Z,53.93
2018-09-19T04:54:45.806Z,53.96
2018-09-19T04:57:13.304Z,54.32
2018-09-19T04:59:40.793Z,54.04
2018-09-19T05:02:08.301Z,54.38
2018-09-19T05:04:35.933Z,54.11
2018-09-19T05:07:03.450Z,54.50
2018-09-19T05:09:30.956Z,53.98
2018-09-19T05:11:58.459Z,54.45
2018-09-19T05:14:26.069Z,54.41
2018-09-19T05:16:53.597Z,54.43
2018-09-19T05:19:21.179Z,54.54
2018-09-19T05:21:48.699Z,54.02
2018-09-19T05:24:16.199Z,54.56
2018-09-19T05:26:43.703Z,54.11
2018-09-19T05:29:11.200Z,54.21
2018-09-19T05:31:38.690Z,54.13
2018-09-19T05:34:06.172Z,54.41
2018-09-19T05:36:33.657Z,54.36
2018-09-19T05:39:01.278Z,53.98
2018-09-19T05:41:28.851Z,54.48
2018-09-19T05:43:56.348Z,54.00
2018-09-19T05:46:23.974Z,54.37
2018-09-19T05:48:51.458Z,54.47
2018-09-19T05:51:18.970Z,54.37
2018-09-19T05:53:46.486Z,54.20
2018-09-19T05:56:14.089Z,53.97
2018-09-19T05:58:42.390Z,54.32
2018-09-19T06:01:09.925Z,53.93
2018-09-19T06:03:37.424Z,53.94
2018-09-19T06:06:05.022Z,54.34
2018-09-19T06:08:32.580Z,54.26
2018-09-19T06:11:00.076Z,54.20
2018-09-19T06:13:27.597Z,54.26
2018-09-19T06:15:55.239Z,53.81
2018-09-19T06:18:22.722Z,53.92
2018-09-19T06:20:50.203Z,54.31
2018-09-19T06:23:17.757Z,53.88
2018-09-19T06:25:45.281Z,54.16
2018-09-19T06:28:12.762Z,53.78
2018-09-19T06:30:40.283Z,54.27
2018-09-19T06:33:07.982Z,54.17
2018-09-19T06:35:35.372Z,54.16
2018-09-19T06:38:02.916Z,53.77
2018-09-19T06:40:30.557Z,54.24
2018-09-19T06:42:57.952Z,54.15
2018-09-19T06:45:25.434Z,53.80
2018-09-19T06:47:52.964Z,54.12
2018-09-19T06:50:20.474Z,53.74
2018-09-19T06:52:48.077Z,53.75
2018-09-19T06:55:15.658Z,53.73
2018-09-19T06:57:43.186Z,53.67
2018-09-19T07:00:10.681Z,53.67
2018-09-19T07:02:38.186Z,54.25
2018-09-19T07:05:05.740Z,53.72
2018-09-19T07:07:33.313Z,54.14
2018-09-19T07:10:00.798Z,54.13
2018-09-19T07:12:28.377Z,53.70
2018-09-19T07:14:55.867Z,53.66
2018-09-19T07:17:23.408Z,53.84
2018-09-19T07:19:50.898Z,54.00
2018-09-19T07:22:18.436Z,53.59
2018-09-19T07:24:46.005Z,54.00
2018-09-19T07:27:13.524Z,53.67
2018-09-19T07:29:41.073Z,53.66
2018-09-19T07:32:09.134Z,54.06
2018-09-19T07:34:36.672Z,53.99
2018-09-19T07:37:04.152Z,53.99
2018-09-19T07:39:31.663Z,54.00
2018-09-19T07:41:59.176Z,54.01
2018-09-19T07:44:26.710Z,53.70
2018-09-19T07:46:54.238Z,53.88
2018-09-19T07:49:21.756Z,53.72
2018-09-19T07:51:49.268Z,54.07
2018-09-19T07:54:16.796Z,54.04
2018-09-19T07:56:44.330Z,53.91
2018-09-19T07:59:11.908Z,53.69
2018-09-19T08:01:39.430Z,53.65
2018-09-19T08:04:06.970Z,54.10
2018-09-19T08:06:34.450Z,54.20
2018-09-19T08:09:02.016Z,54.03
2018-09-19T08:11:29.542Z,54.10
2018-09-19T08:13:57.040Z,54.11
2018-09-19T08:16:24.533Z,54.21
2018-09-19T08:18:52.063Z,54.16
2018-09-19T08:21:19.634Z,53.96
2018-09-19T08:23:47.171Z,53.67
2018-09-19T08:26:14.660Z,54.23
2018-09-19T08:28:42.166Z,54.16
2018-09-19T08:31:10.301Z,53.80
2018-09-19T08:33:37.855Z,54.20
2018-09-19T08:36:05.331Z,53.80
2018-09-19T08:38:32.906Z,53.78
2018-09-19T08:41:00.544Z,54.25
2018-09-19T08:43:28.085Z,54.09
2018-09-19T08:45:55.590Z,54.19
2018-09-19T08:48:23.110Z,53.89
2018-09-19T08:50:50.703Z,53.91
2018-09-19T08:53:18.219Z,54.11
2018-09-19T08:55:45.725Z,54.23
2018-09-19T08:58:13.195Z,54.39
2018-09-19T09:00:40.703Z,54.05
2018-09-19T09:03:08.199Z,54.00
2018-09-19T09:05:35.695Z,53.86
2018-09-19T09:08:03.230Z,53.94
2018-09-19T09:10:30.769Z,54.30
2018-09-19T09:12:58.235Z,54.29
2018-09-19T09:15:25.739Z,53.91
2018-09-19T09:17:53.343Z,53.89
2018-09-19T09:20:20.902Z,54.26
2018-09-19T09:22:48.419Z,53.93
2018-09-19T09:25:15.935Z,54.20
2018-09-19T09:27:43.444Z,54.14
2018-09-19T09:30:11.060Z,54.18
2018-09-19T09:32:38.584Z,53.82
2018-09-19T09:35:06.794Z,53.92
2018-09-19T09:37:34.457Z,53.81
2018-09-19T09:40:01.977Z,54.28
2018-09-19T09:42:29.486Z,54.32
2018-09-19T09:44:57.042Z,53.80
2018-09-19T09:47:24.588Z,54.15
2018-09-19T09:49:52.102Z,54.10
2018-09-19T09:52:19.644Z,54.32
2018-09-19T09:54:47.176Z,53.79
2018-09-19T09:57:14.700Z,53.77
2018-09-19T09:59:42.217Z,54.21
2018-09-19T10:02:09.719Z,53.77
2018-09-19T10:04:37.272Z,54.25
2018-09-19T10:07:04.907Z,53.78
2018-09-19T10:09:32.413Z,53.89
2018-09-19T10:11:59.958Z,54.02
2018-09-19T10:14:27.470Z,54.02
2018-09-19T10:16:54.949Z,54.35
2018-09-19T10:19:22.438Z,54.42
2018-09-19T10:21:49.954Z,54.45
2018-09-19T10:24:17.502Z,54.03
2018-09-19T10:26:45.033Z,54.47
2018-09-19T10:29:12.567Z,53.93
2018-09-19T10:31:40.199Z,54.50
2018-09-19T10:34:07.699Z,54.50
2018-09-19T10:36:35.219Z,54.45
2018-09-19T10:39:03.598Z,54.44
2018-09-19T10:41:31.257Z,54.05
2018-09-19T10:43:58.896Z,54.44
2018-09-19T10:46:26.350Z,54.44
2018-09-19T10:48:53.905Z,54.45
2018-09-19T10:51:21.452Z,54.47
2018-09-19T10:53:48.961Z,54.22
2018-09-19T10:56:16.547Z,54.57
2018-09-19T10:58:44.051Z,54.09
2018-09-19T11:01:11.584Z,54.31
2018-09-19T11:03:39.199Z,54.71
2018-09-19T11:06:06.720Z,54.69
2018-09-19T11:08:34.292Z,54.44
2018-09-19T11:11:01.833Z,54.37
2018-09-19T11:13:29.442Z,54.24
2018-09-19T11:15:56.987Z,54.60
2018-09-19T11:18:24.563Z,54.15
2018-09-19T11:20:52.079Z,54.57
2018-09-19T11:23:19.655Z,54.81
2018-09-19T11:25:47.236Z,54.33
2018-09-19T11:28:14.786Z,54.57
2018-09-19T11:30:42.357Z,54.48
2018-09-19T11:33:10.118Z,54.27
2018-09-19T11:35:37.827Z,54.66
2018-09-19T11:38:05.418Z,54.37
2018-09-19T11:40:32.972Z,54.68
2018-09-19T11:43:00.568Z,54.79
2018-09-19T11:45:28.130Z,54.78
2018-09-19T11:47:55.649Z,54.45
2018-09-19T11:50:23.149Z,54.43
2018-09-19T11:52:51.144Z,54.30
2018-09-19T11:55:18.646Z,54.30
2018-09-19T11:57:46.161Z,54.39
2018-09-19T12:00:13.698Z,54.79
2018-09-19T12:02:41.327Z,54.47
2018-09-19T12:05:08.901Z,54.47
2018-09-19T12:07:36.415Z,54.41
2018-09-19T12:10:04.031Z,54.38
2018-09-19T12:12:31.546Z,54.88
2018-09-19T12:14:59.402Z,54.81
2018-09-19T12:17:27.069Z,54.94
2018-09-19T12:19:54.694Z,54.43
2018-09-19T12:22:22.256Z,54.50
2018-09-19T12:24:49.841Z,54.54
2018-09-19T12:27:17.376Z,54.41
2018-09-19T12:29:44.910Z,54.71
2018-09-19T12:32:12.529Z,54.91
2018-09-19T12:34:40.015Z,54.77
2018-09-19T12:37:07.551Z,54.86
2018-09-19T12:39:35.190Z,54.78
2018-09-19T12:42:02.667Z,54.93
2018-09-19T12:44:30.189Z,54.78
2018-09-19T12:46:57.706Z,54.54
2018-09-19T12:49:25.225Z,54.87
2018-09-19T12:51:52.795Z,54.81
2018-09-19T12:54:20.300Z,54.39
2018-09-19T12:56:47.843Z,54.80
2018-09-19T12:59:15.397Z,54.41
2018-09-19T13:01:43.026Z,54.85
2018-09-19T13:04:10.562Z,54.80
2018-09-19T13:06:38.052Z,54.85
2018-09-19T13:09:07.306Z,54.90
2018-09-19T13:11:34.769Z,54.95
2018-09-19T13:14:02.308Z,54.58
2018-09-19T13:16:29.910Z,55.05
2018-09-19T13:18:57.443Z,54.93
2018-09-19T13:21:25.119Z,54.57
2018-09-19T13:23:52.678Z,54.85
2018-09-19T13:26:20.157Z,54.46
2018-09-19T13:28:47.685Z,54.30
2018-09-19T13:31:15.198Z,54.99
2018-09-19T13:33:42.761Z,54.96
2018-09-19T13:36:10.313Z,54.56
2018-09-19T13:38:37.849Z,54.91
2018-09-19T13:41:05.390Z,54.93
2018-09-19T13:43:33.002Z,54.65
2018-09-19T13:46:00.534Z,54.62
2018-09-19T13:48:28.103Z,54.95
2018-09-19T13:51:01.395Z,55.00
2018-09-19T13:53:29.228Z,54.97
2018-09-19T13:55:56.762Z,54.60
2018-09-19T13:58:24.271Z,54.62
2018-09-19T14:00:51.839Z,55.01
2018-09-19T14:03:19.418Z,54.52
2018-09-19T14:05:46.927Z,55.10
2018-09-19T14:08:14.478Z,55.03
2018-09-19T14:10:42.843Z,55.09
2018-09-19T14:13:10.342Z,55.06
2018-09-19T14:15:38.787Z,55.00
2018-09-19T14:18:06.540Z,54.90
2018-09-19T14:20:34.523Z,54.97
2018-09-19T14:23:02.606Z,55.05
2018-09-19T14:25:30.150Z,55.01
2018-09-19T14:27:57.804Z,54.64
2018-09-19T14:30:25.319Z,54.63
2018-09-19T14:32:53.053Z,54.86
2018-09-19T14:35:20.527Z,54.60
2018-09-19T14:37:48.467Z,54.75
2018-09-19T14:40:15.946Z,55.09
2018-09-19T14:42:43.478Z,55.01
2018-09-19T14:45:11.008Z,55.11
2018-09-19T14:47:38.564Z,55.10
2018-09-19T14:50:06.070Z,54.92
2018-09-19T14:52:33.603Z,54.73
2018-09-19T14:55:01.221Z,54.98
2018-09-19T14:57:28.834Z,55.09
2018-09-19T14:59:56.409Z,55.11
2018-09-19T15:02:24.612Z,54.81
2018-09-19T15:04:52.150Z,55.04
2018-09-19T15:07:19.693Z,54.68
2018-09-19T15:09:47.214Z,55.13
2018-09-19T15:12:14.687Z,55.08
2018-09-19T15:14:42.200Z,54.70
2018-09-19T15:17:09.733Z,54.67
2018-09-19T15:19:37.254Z,55.13
2018-09-19T15:22:04.799Z,55.17
2018-09-19T15:24:32.406Z,54.82
2018-09-19T15:26:59.871Z,54.97
2018-09-19T15:29:28.402Z,55.34
2018-09-19T15:31:56.030Z,54.89
2018-09-19T15:34:23.517Z,55.30
2018-09-19T15:36:51.033Z,55.25
2018-09-19T15:39:18.597Z,55.18
2018-09-19T15:41:46.119Z,55.31
2018-09-19T15:44:13.702Z,55.35
2018-09-19T15:46:41.263Z,54.86
2018-09-19T15:49:08.762Z,55.22
2018-09-19T15:51:36.287Z,54.82
2018-09-19T15:54:03.782Z,55.10
2018-09-19T15:56:31.310Z,54.89
2018-09-19T15:58:58.782Z,54.67
2018-09-19T16:01:26.263Z,55.01
2018-09-19T16:03:53.810Z,55.11
2018-09-19T16:06:21.286Z,54.75
2018-09-19T16:08:48.814Z,55.19
2018-09-19T16:11:16.398Z,54.78
2018-09-19T16:13:43.904Z,55.02
2018-09-19T16:16:11.512Z,54.76
2018-09-19T16:18:39.022Z,55.12
2018-09-19T16:21:06.767Z,55.03
2018-09-19T16:23:34.190Z,55.13
2018-09-19T16:26:01.733Z,55.19
2018-09-19T16:28:29.313Z,55.15
2018-09-19T16:30:56.799Z,55.14
2018-09-19T16:33:24.270Z,55.12
2018-09-19T16:35:51.887Z,54.70
2018-09-19T16:38:19.402Z,54.80
2018-09-19T16:40:46.928Z,54.73
2018-09-19T16:43:14.471Z,55.09
2018-09-19T16:45:42.013Z,54.99
2018-09-19T16:48:09.476Z,54.70
2018-09-19T16:50:37.026Z,54.75
2018-09-19T16:53:04.583Z,54.64
2018-09-19T16:55:32.072Z,55.04
2018-09-19T16:57:59.650Z,54.85
2018-09-19T17:00:27.187Z,55.07
2018-09-19T17:02:54.710Z,54.79
2018-09-19T17:05:22.246Z,54.96
2018-09-19T17:07:49.741Z,54.67
2018-09-19T17:10:17.272Z,55.12
2018-09-19T17:12:44.870Z,54.66
2018-09-19T17:15:12.458Z,54.72
2018-09-19T17:17:39.992Z,55.11
2018-09-19T17:20:07.770Z,54.95
2018-09-19T17:22:35.298Z,54.65
2018-09-19T17:25:02.846Z,54.81
2018-09-19T17:27:30.470Z,55.01
2018-09-19T17:29:58.006Z,54.64
2018-09-19T17:32:25.554Z,55.32
2018-09-19T17:34:53.192Z,55.08
2018-09-19T17:37:20.767Z,55.10
2018-09-19T17:39:48.470Z,54.77
2018-09-19T17:42:16.025Z,54.87
2018-09-19T17:44:43.510Z,54.86
2018-09-19T17:47:11.022Z,55.33
2018-09-19T17:49:38.596Z,54.95
2018-09-19T17:52:06.165Z,54.97
2018-09-19T17:54:33.641Z,55.43
2018-09-19T17:57:01.105Z,55.38
2018-09-19T17:59:28.701Z,55.04
2018-09-19T18:01:56.243Z,55.03
2018-09-19T18:04:23.793Z,55.04
2018-09-19T18:06:51.582Z,55.08
2018-09-19T18:09:19.140Z,55.45
2018-09-19T18:11:46.653Z,54.97
2018-09-19T18:14:14.142Z,54.94
2018-09-19T18:16:41.723Z,55.38
2018-09-19T18:19:09.206Z,54.94
2018-09-19T18:21:36.835Z,55.04
2018-09-19T18:24:04.366Z,55.38
2018-09-19T18:26:31.928Z,55.42
2018-09-19T18:28:59.490Z,55.48
2018-09-19T18:31:27.052Z,55.49
2018-09-19T18:33:54.518Z,55.16
2018-09-19T18:36:22.054Z,55.43
2018-09-19T18:38:49.622Z,55.37
2018-09-19T18:41:17.195Z,55.10
2018-09-19T18:43:44.722Z,55.23
2018-09-19T18:46:12.301Z,55.03
2018-09-19T18:48:39.944Z,54.98
2018-09-19T18:51:07.596Z,55.08
2018-09-19T18:53:35.218Z,55.34
2018-09-19T18:56:02.748Z,55.13
2018-09-19T18:58:30.356Z,55.36
2018-09-19T19:00:57.826Z,54.96
2018-09-19T19:03:25.356Z,54.92
2018-09-19T19:05:52.839Z,54.99
2018-09-19T19:08:20.438Z,54.87
2018-09-19T19:10:47.939Z,55.29
2018-09-19T19:13:15.446Z,55.27
2018-09-19T19:15:43.041Z,54.82
2018-09-19T19:18:10.540Z,54.91
2018-09-19T19:20:38.076Z,55.29
2018-09-19T19:23:05.670Z,55.17
2018-09-19T19:25:33.334Z,54.80
2018-09-19T19:28:02.085Z,55.21
2018-09-19T19:30:29.933Z,55.12
2018-09-19T19:32:57.431Z,54.88
2018-09-19T19:35:24.952Z,55.22
2018-09-19T19:37:52.576Z,55.26
2018-09-19T19:40:20.381Z,54.96
2018-09-19T19:42:47.976Z,54.98
2018-09-19T19:45:15.574Z,55.03
2018-09-19T19:47:43.537Z,55.74
2018-09-19T19:50:11.334Z,55.46
2018-09-19T19:52:38.957Z,55.59
2018-09-19T19:55:06.499Z,56.32
2018-09-19T19:57:34.119Z,56.56
2018-09-19T20:00:01.740Z,56.70
2018-09-19T20:02:29.296Z,56.51
2018-09-19T20:04:56.824Z,57.01
2018-09-19T20:07:24.368Z,56.74
2018-09-19T20:09:51.877Z,57.03
2018-09-19T20:12:19.440Z,56.90
2018-09-19T20:14:46.973Z,57.07
2018-09-19T20:17:14.643Z,57.60
2018-09-19T20:19:42.267Z,57.32
2018-09-19T20:22:10.744Z,57.37
2018-09-19T20:24:38.385Z,57.59
2018-09-19T20:27:06.530Z,57.30
2018-09-19T20:29:34.099Z,57.27
2018-09-19T20:32:01.624Z,57.62
2018-09-19T20:34:29.140Z,57.38
2018-09-19T20:36:56.665Z,57.22
2018-09-19T20:39:24.248Z,57.50
2018-09-19T20:41:51.738Z,57.69
2018-09-19T20:44:19.243Z,57.14
2018-09-19T20:46:46.869Z,57.32
2018-09-19T20:49:14.344Z,57.66
2018-09-19T20:51:41.876Z,57.55
2018-09-19T20:54:09.631Z,57.57
2018-09-19T20:56:37.126Z,57.72
2018-09-19T20:59:05.043Z,57.14
2018-09-19T21:01:32.514Z,57.51
2018-09-19T21:04:00.133Z,57.10
2018-09-19T21:06:27.660Z,57.55
2018-09-19T21:08:55.132Z,57.12
2018-09-19T21:11:22.724Z,57.08
2018-09-19T21:13:50.233Z,57.23
2018-09-19T21:16:17.865Z,57.01
2018-09-19T21:18:45.423Z,56.94
2018-09-19T21:21:12.984Z,57.16
2018-09-19T21:23:40.516Z,56.88
2018-09-19T21:26:08.086Z,56.98
2018-09-19T21:28:35.558Z,56.92
2018-09-19T21:31:03.158Z,57.04
2018-09-19T21:33:30.796Z,56.81
2018-09-19T21:35:58.274Z,57.17
2018-09-19T21:38:25.892Z,57.14
2018-09-19T21:40:53.513Z,57.16
2018-09-19T21:43:21.006Z,57.09
2018-09-19T21:45:48.506Z,56.79
2018-09-19T21:48:16.018Z,56.71
2018-09-19T21:50:43.595Z,56.89
2018-09-19T21:53:11.390Z,56.68
2018-09-19T21:55:39.012Z,56.53
2018-09-19T21:58:07.252Z,56.70
2018-09-19T22:00:37.329Z,56.97
2018-09-19T22:03:05.332Z,56.45
2018-09-19T22:05:33.033Z,56.71
2018-09-19T22:08:00.617Z,56.91
2018-09-19T22:10:28.798Z,56.51
2018-09-19T22:12:56.388Z,56.38
2018-09-19T22:15:23.898Z,56.58
2018-09-19T22:17:51.766Z,56.95
2018-09-19T22:20:19.272Z,56.82
2018-09-19T22:22:46.776Z,56.73
2018-09-19T22:25:14.472Z,56.28
2018-09-19T22:27:42.597Z,56.62
2018-09-19T22:30:10.046Z,56.68
2018-09-19T22:32:37.581Z,56.63
2018-09-19T22:35:06.473Z,56.58
2018-09-19T22:37:33.975Z,56.13
2018-09-19T22:40:02.187Z,56.24
2018-09-19T22:42:29.806Z,56.48
2018-09-19T22:44:57.454Z,56.07
2018-09-19T22:47:25.030Z,55.87
2018-09-19T22:49:52.652Z,56.34
2018-09-19T22:52:20.166Z,55.93
2018-09-19T22:54:47.782Z,56.28
2018-09-19T22:57:15.279Z,56.33
2018-09-19T22:59:42.868Z,55.94
2018-09-19T23:02:10.390Z,55.90
2018-09-19T23:04:37.902Z,56.32
2018-09-19T23:07:05.467Z,56.23
2018-09-19T23:09:32.988Z,55.81
2018-09-19T23:12:00.545Z,56.22
2018-09-19T23:14:28.078Z,56.09
2018-09-19T23:16:55.569Z,55.70
2018-09-19T23:19:23.078Z,55.59
2018-09-19T23:21:50.570Z,55.84
2018-09-19T23:24:18.080Z,55.56
2018-09-19T23:26:45.561Z,55.60
2018-09-19T23:29:13.111Z,55.58
2018-09-19T23:31:40.574Z,55.70
2018-09-19T23:34:08.102Z,55.62
2018-09-19T23:36:35.714Z,55.59
2018-09-19T23:39:03.878Z,55.56
2018-09-19T23:41:31.342Z,55.52
2018-09-19T23:43:58.886Z,55.96
2018-09-19T23:46:26.409Z,55.87
2018-09-19T23:48:53.961Z,55.50
2018-09-19T23:51:21.562Z,55.49
2018-09-19T23:53:49.128Z,55.71
2018-09-19T23:56:16.612Z,55.44
2018-09-19T23:58:44.164Z,55.69
